(°C)
(°C)
SE
SSE
SSE
NNO
NNO
NO
NO
(km/h)
5-11
4-7
1-6
2-3
3-3
3-5
3-5
(mm)
0
0
0
0
0
0
0
(%)
0
0
0
0
0
0
0

Élévation du soleil

/ -9.6°
sun-icon
UV 2
08:16
18:14
Gibbeuse décroissante (198°)
19:39
09:34

METAR pour Alcantarilla (LERI)

Heure Conditions Température/
Point de rosée
Vent Visibilité Météo Nuages Pression Changement Brut
VFR 10°C / 3°C 90º 2kt >10km - Few Clouds 4600ft 1029 No Significant change LERI 191730Z 09002KT 9999 FEW046 10/03 Q1029 NOSIG
VFR 12°C / 3°C 80º 3kt >10km - Few Clouds 4400ft 1029 No Significant change LERI 191700Z 08003KT 9999 FEW044 12/03 Q1029 NOSIG
VFR 13°C / 3°C 80º variable 040º to 110º 4kt >10km - Few Clouds 4200ft 1029 No Significant change LERI 191630Z 08004KT 040V110 9999 FEW042 13/03 Q1029 NOSIG
VFR 14°C / 3°C 90º variable 050º to 130º 4kt >10km - Few Clouds 4200ft 1029 No Significant change LERI 191600Z 09004KT 050V130 9999 FEW042 14/03 Q1029 NOSIG
VFR 14°C / 3°C 90º variable 060º to 150º 5kt >10km - Few Clouds 4600ft 1029 No Significant change LERI 191530Z 09005KT 060V150 9999 FEW046 14/03 Q1029 NOSIG
VFR 14°C / 3°C 100º variable 040º to 180º 3kt >10km - Few Clouds 4600ft 1029 No Significant change LERI 191500Z 10003KT 040V180 9999 FEW046 14/03 Q1029 NOSIG
VFR 14°C / 3°C 80º variable 010º to 160º 3kt >10km - Few Clouds 4600ft 1029 No Significant change LERI 191430Z 08003KT 010V160 9999 FEW046 14/03 Q1029 NOSIG
VFR 14°C / 1°C variable 2kt >10km - Few Clouds 4600ft 1029 No Significant change LERI 191400Z VRB02KT 9999 FEW046 14/01 Q1029 NOSIG
VFR 13°C / 0°C 70º variable 350º to 150º 3kt >10km - Few Clouds 4800ft 1030 No Significant change LERI 191330Z 07003KT 350V150 9999 FEW048 13/00 Q1030 NOSIG
VFR 12°C / 1°C variable 2kt >10km - Scattered Clouds 4600ft 1030 No Significant change LERI 191300Z VRB02KT 9999 SCT046 12/01 Q1030 NOSIG
VFR 11°C / 0°C variable 1kt >10km - Broken Clouds 4400ft 1031 No Significant change LERI 191230Z VRB01KT 9999 BKN044 11/00 Q1031 NOSIG
VFR 9°C / 0°C variable 1kt 9000m - Broken Clouds 4200ft 1031 No Significant change LERI 191200Z VRB01KT 9000 BKN042 09/M00 Q1031 NOSIG
VFR 8°C / 0°C variable 1kt 9000m - Broken Clouds 4000ft 1032 No Significant change LERI 191130Z VRB01KT 9000 BKN040 08/M00 Q1032 NOSIG
VFR 6°C / 0°C variable 0kt 9000m - Overcast 4000ft 1033 No Significant change LERI 191100Z 00000KT 9000 OVC040 06/00 Q1033 NOSIG
VFR 5°C / 0°C variable 1kt 9000m - Broken Clouds 4000ft 1033 No Significant change LERI 191030Z VRB01KT 9000 BKN040 05/M00 Q1033 NOSIG
VFR 4°C / 0°C variable 0kt 9000m - Broken Clouds 4000ft 1033 No Significant change LERI 191000Z 00000KT 9000 BKN040 04/M00 Q1033 NOSIG
MVFR 3°C / 1°C variable 1kt 8000m - Broken Clouds 4000ft 1033 No Significant change LERI 190930Z VRB01KT 8000 BKN040 03/01 Q1033 NOSIG
VFR 2°C / 1°C 200º 1kt 9000m - Broken Clouds 3800ft 1033 No Significant change LERI 190900Z 20001KT 9000 4200S BKN038 02/01 Q1033 NOSIG
VFR 1°C / 0°C variable 0kt >10km - Broken Clouds 3800ft 1032 No Significant change LERI 190830Z 00000KT 9999 4200S BKN038 01/00 Q1032 NOSIG
VFR 0°C / -1°C variable 1kt >10km - Broken Clouds 3800ft 1032 No Significant change LERI 190800Z VRB01KT 9999 4200S BKN038 00/M01 Q1032 NOSIG
VFR 0°C / -1°C variable 1kt >10km - Broken Clouds 3800ft 1032 No Significant change LERI 190730Z VRB01KT 9999 4200S BKN038 M00/M01 Q1032 NOSIG
VFR -1°C / -2°C variable 1kt >10km - Broken Clouds 3800ft 1032 No Significant change LERI 190700Z VRB01KT 9999 BKN038 M01/M02 Q1032 NOSIG
VFR -1°C / -2°C 240º 2kt >10km - Clouds and Visibility OK 1032 No Significant change LERI 190630Z 24002KT CAVOK M01/M02 Q1032 NOSIG
VFR -2°C / -3°C variable 1kt >10km - Clouds and Visibility OK 1032 No Significant change LERI 190600Z VRB01KT CAVOK M02/M03 Q1032 NOSIG

VFR

10°C / 3°C

[Plus]
Vent 90º 2kt
Visibilité >10km
Météo -
Nuages Few Clouds 4600ft
Pression 1029
Changement No Significant change
Brut LERI 191730Z 09002KT 9999 FEW046 10/03 Q1029 NOSIG

VFR

12°C / 3°C

[Plus]
Vent 80º 3kt
Visibilité >10km
Météo -
Nuages Few Clouds 4400ft
Pression 1029
Changement No Significant change
Brut LERI 191700Z 08003KT 9999 FEW044 12/03 Q1029 NOSIG

VFR

13°C / 3°C

[Plus]
Vent 80º variable 040º to 110º 4kt
Visibilité >10km
Météo -
Nuages Few Clouds 4200ft
Pression 1029
Changement No Significant change
Brut LERI 191630Z 08004KT 040V110 9999 FEW042 13/03 Q1029 NOSIG

VFR

14°C / 3°C

[Plus]
Vent 90º variable 050º to 130º 4kt
Visibilité >10km
Météo -
Nuages Few Clouds 4200ft
Pression 1029
Changement No Significant change
Brut LERI 191600Z 09004KT 050V130 9999 FEW042 14/03 Q1029 NOSIG

VFR

14°C / 3°C

[Plus]
Vent 90º variable 060º to 150º 5kt
Visibilité >10km
Météo -
Nuages Few Clouds 4600ft
Pression 1029
Changement No Significant change
Brut LERI 191530Z 09005KT 060V150 9999 FEW046 14/03 Q1029 NOSIG

VFR

14°C / 3°C

[Plus]
Vent 100º variable 040º to 180º 3kt
Visibilité >10km
Météo -
Nuages Few Clouds 4600ft
Pression 1029
Changement No Significant change
Brut LERI 191500Z 10003KT 040V180 9999 FEW046 14/03 Q1029 NOSIG

VFR

14°C / 3°C

[Plus]
Vent 80º variable 010º to 160º 3kt
Visibilité >10km
Météo -
Nuages Few Clouds 4600ft
Pression 1029
Changement No Significant change
Brut LERI 191430Z 08003KT 010V160 9999 FEW046 14/03 Q1029 NOSIG

VFR

14°C / 1°C

[Plus]
Vent variable 2kt
Visibilité >10km
Météo -
Nuages Few Clouds 4600ft
Pression 1029
Changement No Significant change
Brut LERI 191400Z VRB02KT 9999 FEW046 14/01 Q1029 NOSIG

VFR

13°C / 0°C

[Plus]
Vent 70º variable 350º to 150º 3kt
Visibilité >10km
Météo -
Nuages Few Clouds 4800ft
Pression 1030
Changement No Significant change
Brut LERI 191330Z 07003KT 350V150 9999 FEW048 13/00 Q1030 NOSIG

VFR

12°C / 1°C

[Plus]
Vent variable 2kt
Visibilité >10km
Météo -
Nuages Scattered Clouds 4600ft
Pression 1030
Changement No Significant change
Brut LERI 191300Z VRB02KT 9999 SCT046 12/01 Q1030 NOSIG

VFR

11°C / 0°C

[Plus]
Vent variable 1kt
Visibilité >10km
Météo -
Nuages Broken Clouds 4400ft
Pression 1031
Changement No Significant change
Brut LERI 191230Z VRB01KT 9999 BKN044 11/00 Q1031 NOSIG

VFR

9°C / 0°C

[Plus]
Vent variable 1kt
Visibilité 9000m
Météo -
Nuages Broken Clouds 4200ft
Pression 1031
Changement No Significant change
Brut LERI 191200Z VRB01KT 9000 BKN042 09/M00 Q1031 NOSIG

VFR

8°C / 0°C

[Plus]
Vent variable 1kt
Visibilité 9000m
Météo -
Nuages Broken Clouds 4000ft
Pression 1032
Changement No Significant change
Brut LERI 191130Z VRB01KT 9000 BKN040 08/M00 Q1032 NOSIG

VFR

6°C / 0°C

[Plus]
Vent variable 0kt
Visibilité 9000m
Météo -
Nuages Overcast 4000ft
Pression 1033
Changement No Significant change
Brut LERI 191100Z 00000KT 9000 OVC040 06/00 Q1033 NOSIG

VFR

5°C / 0°C

[Plus]
Vent variable 1kt
Visibilité 9000m
Météo -
Nuages Broken Clouds 4000ft
Pression 1033
Changement No Significant change
Brut LERI 191030Z VRB01KT 9000 BKN040 05/M00 Q1033 NOSIG

VFR

4°C / 0°C

[Plus]
Vent variable 0kt
Visibilité 9000m
Météo -
Nuages Broken Clouds 4000ft
Pression 1033
Changement No Significant change
Brut LERI 191000Z 00000KT 9000 BKN040 04/M00 Q1033 NOSIG

MVFR

3°C / 1°C

[Plus]
Vent variable 1kt
Visibilité 8000m
Météo -
Nuages Broken Clouds 4000ft
Pression 1033
Changement No Significant change
Brut LERI 190930Z VRB01KT 8000 BKN040 03/01 Q1033 NOSIG

VFR

2°C / 1°C

[Plus]
Vent 200º 1kt
Visibilité 9000m
Météo -
Nuages Broken Clouds 3800ft
Pression 1033
Changement No Significant change
Brut LERI 190900Z 20001KT 9000 4200S BKN038 02/01 Q1033 NOSIG

VFR

1°C / 0°C

[Plus]
Vent variable 0kt
Visibilité >10km
Météo -
Nuages Broken Clouds 3800ft
Pression 1032
Changement No Significant change
Brut LERI 190830Z 00000KT 9999 4200S BKN038 01/00 Q1032 NOSIG

VFR

0°C / -1°C

[Plus]
Vent variable 1kt
Visibilité >10km
Météo -
Nuages Broken Clouds 3800ft
Pression 1032
Changement No Significant change
Brut LERI 190800Z VRB01KT 9999 4200S BKN038 00/M01 Q1032 NOSIG

VFR

0°C / -1°C

[Plus]
Vent variable 1kt
Visibilité >10km
Météo -
Nuages Broken Clouds 3800ft
Pression 1032
Changement No Significant change
Brut LERI 190730Z VRB01KT 9999 4200S BKN038 M00/M01 Q1032 NOSIG

VFR

-1°C / -2°C

[Plus]
Vent variable 1kt
Visibilité >10km
Météo -
Nuages Broken Clouds 3800ft
Pression 1032
Changement No Significant change
Brut LERI 190700Z VRB01KT 9999 BKN038 M01/M02 Q1032 NOSIG

VFR

-1°C / -2°C

[Plus]
Vent 240º 2kt
Visibilité >10km
Météo -
Nuages Clouds and Visibility OK
Pression 1032
Changement No Significant change
Brut LERI 190630Z 24002KT CAVOK M01/M02 Q1032 NOSIG

VFR

-2°C / -3°C

[Plus]
Vent variable 1kt
Visibilité >10km
Météo -
Nuages Clouds and Visibility OK
Pression 1032
Changement No Significant change
Brut LERI 190600Z VRB01KT CAVOK M02/M03 Q1032 NOSIG

TAF pour Alcantarilla (LERI)

From till


Maximum Temperature 15ºC on . Minimum Temperature -1ºC on .
From till Wind variable 2kt. Visibility 10km or more. Few Clouds 3000ft.

Brut: TAF LERI 191700Z 1918/2018 VRB02KT 9999 FEW030 TX15/2015Z TNM01/2007Z

Radar pour Alcantarilla

Bruine
Légère
Modéré
Fort
Très fort
Grêle

Le marqueur est placé sur Alcantarilla. Cette animation montre le radar des précipitations pour la dernière 1 heure. La bruine ou les légères chutes de neiges peuvent ne pas être détectées par le radar. L'intensité des précipitations est visible avec un code couleur allant du bleu clair au violet foncé et orange.
Radar data source: AEMET.

Les images satellites et les pluies actuelles pour Alcantarilla, Espagne

Le marqueur est placé sur Alcantarilla. [Plus]

L'image satellite en temps réel combine la lumière visible pendant la journée et le rayonnement infrarouge pendant la nuit. La nuit, l'image n'est pas sombre car le rayonnement infrarouge permet de détecter les différences de température. Malheureusement, les nuages bas et le brouillard sont difficiles à distinguer des températures au sol et peuvent donc être presque invisibles pendant la nuit. Les images des satellites Météosat pour l'Europe sont mises à jour en temps réel toutes les 5 minutes. Les images GOES-16/GOES-17 (Amérique du Nord et du Sud) et Himawari (Asie) sont mises à jour toutes les 10 minutes.

La précipitation est estimée à partir des radars et des satellites. Les calculs des précipitations pour la nuit par le satellite sont moins précises que pour le jour. Les croix oranges marquent les lieux où la foudre a été détectée (sur Europe).

Copyright 2022 EUMETSAT / meteoblue. Données de foudre fournies par nowcast.